createdAt,value
2022-09-13T00:00:05.853Z,17.27
2022-09-13T00:01:06.074Z,17.27
2022-09-13T00:02:05.762Z,17.25
2022-09-13T00:03:05.932Z,17.27
2022-09-13T00:04:05.706Z,17.24
2022-09-13T00:05:05.733Z,17.25
2022-09-13T00:06:05.722Z,17.24
2022-09-13T00:07:05.780Z,17.24
2022-09-13T00:08:05.909Z,17.24
2022-09-13T00:09:05.718Z,17.24
2022-09-13T00:10:05.878Z,17.25
2022-09-13T00:11:05.891Z,17.25
2022-09-13T00:12:05.938Z,17.25
2022-09-13T00:13:05.749Z,17.27
2022-09-13T00:14:05.774Z,17.27
2022-09-13T00:15:05.491Z,17.28
2022-09-13T00:16:05.968Z,17.30
2022-09-13T00:17:05.535Z,17.30
2022-09-13T00:18:05.681Z,17.30
2022-09-13T00:19:05.553Z,17.32
2022-09-13T00:20:05.533Z,17.33
2022-09-13T00:21:05.658Z,17.35
2022-09-13T00:22:05.491Z,17.35
2022-09-13T00:23:05.694Z,17.36
2022-09-13T00:24:05.525Z,17.36
2022-09-13T00:25:05.526Z,17.38
2022-09-13T00:26:05.686Z,17.38
2022-09-13T00:27:05.449Z,17.38
2022-09-13T00:28:05.645Z,17.36
2022-09-13T00:29:05.532Z,17.38
2022-09-13T00:30:05.594Z,17.39
2022-09-13T00:31:05.409Z,17.40
2022-09-13T00:32:05.533Z,17.42
2022-09-13T00:33:05.340Z,17.40
2022-09-13T00:34:05.572Z,17.42
2022-09-13T00:35:05.377Z,17.43
2022-09-13T00:36:05.318Z,17.42
2022-09-13T00:37:05.211Z,17.43
2022-09-13T00:38:05.533Z,17.42
2022-09-13T00:39:05.263Z,17.42
2022-09-13T00:40:05.383Z,17.43
2022-09-13T00:41:05.430Z,17.43
2022-09-13T00:42:05.359Z,17.43
2022-09-13T00:43:05.308Z,17.45
2022-09-13T00:44:05.283Z,17.45
2022-09-13T00:45:05.200Z,17.43
2022-09-13T00:46:05.250Z,17.45
2022-09-13T00:47:05.157Z,17.43
2022-09-13T00:48:05.282Z,17.46
2022-09-13T00:49:05.206Z,17.45
2022-09-13T00:50:05.110Z,17.46
2022-09-13T00:51:05.412Z,17.46
2022-09-13T00:52:05.263Z,17.46
2022-09-13T00:53:05.058Z,17.47
2022-09-13T00:54:05.107Z,17.47
2022-09-13T00:55:05.249Z,17.47
2022-09-13T00:56:05.002Z,17.47
2022-09-13T00:57:05.039Z,17.47
2022-09-13T00:58:05.146Z,17.47
2022-09-13T00:59:05.093Z,17.47
2022-09-13T01:00:05.064Z,17.46
2022-09-13T01:01:05.537Z,17.46
2022-09-13T01:02:05.421Z,17.47
2022-09-13T01:03:05.563Z,17.46
2022-09-13T01:04:06.413Z,17.46
2022-09-13T01:05:04.995Z,17.47
2022-09-13T01:06:05.085Z,17.47
2022-09-13T01:07:05.140Z,17.47
2022-09-13T01:08:05.018Z,17.49
2022-09-13T01:09:05.277Z,17.49
2022-09-13T01:10:05.132Z,17.49
2022-09-13T01:11:05.076Z,17.47
2022-09-13T01:12:05.197Z,17.47
2022-09-13T01:13:05.538Z,17.47
2022-09-13T01:14:05.177Z,17.46
2022-09-13T01:15:05.050Z,17.49
2022-09-13T01:16:05.184Z,17.47
2022-09-13T01:17:05.077Z,17.45
2022-09-13T01:18:05.008Z,17.47
2022-09-13T01:19:04.963Z,17.45
2022-09-13T01:20:05.213Z,17.46
2022-09-13T01:21:04.850Z,17.46
2022-09-13T01:22:04.787Z,17.46
2022-09-13T01:23:04.857Z,17.45
2022-09-13T01:24:04.812Z,17.47
2022-09-13T01:25:04.863Z,17.47
2022-09-13T01:26:04.699Z,17.47
2022-09-13T01:27:04.782Z,17.49
2022-09-13T01:28:04.576Z,17.47
2022-09-13T01:29:04.596Z,17.47
2022-09-13T01:30:04.615Z,17.47
2022-09-13T01:31:04.541Z,17.47
2022-09-13T01:32:04.748Z,17.49
2022-09-13T01:33:04.685Z,17.49
2022-09-13T01:34:04.699Z,17.47
2022-09-13T01:35:04.700Z,17.49
2022-09-13T01:36:04.685Z,17.47
2022-09-13T01:37:04.652Z,17.47
2022-09-13T01:38:04.579Z,17.45
2022-09-13T01:39:04.503Z,17.46
2022-09-13T01:40:04.486Z,17.43
2022-09-13T01:41:05.016Z,17.45
2022-09-13T01:42:04.507Z,17.43
2022-09-13T01:43:04.521Z,17.42
2022-09-13T01:44:04.455Z,17.42
2022-09-13T01:45:04.470Z,17.40
2022-09-13T01:46:04.532Z,17.40
2022-09-13T01:47:04.402Z,17.40
2022-09-13T01:48:04.514Z,17.38
2022-09-13T01:49:04.549Z,17.38
2022-09-13T01:50:04.330Z,17.38
2022-09-13T01:51:04.452Z,17.36
2022-09-13T01:52:04.324Z,17.35
2022-09-13T01:53:04.390Z,17.33
2022-09-13T01:54:04.321Z,17.32
2022-09-13T01:55:04.390Z,17.32
2022-09-13T01:56:04.279Z,17.32
2022-09-13T01:57:04.337Z,17.30
2022-09-13T01:58:04.315Z,17.30
2022-09-13T01:59:04.267Z,17.28
2022-09-13T02:00:04.255Z,17.32
2022-09-13T02:01:04.332Z,17.32
2022-09-13T02:02:04.261Z,17.32
2022-09-13T02:03:04.202Z,17.32
2022-09-13T02:04:04.170Z,17.33
2022-09-13T02:05:04.385Z,17.35
2022-09-13T02:06:04.217Z,17.33
2022-09-13T02:07:04.202Z,17.35
2022-09-13T02:08:04.160Z,17.35
2022-09-13T02:09:04.154Z,17.33
2022-09-13T02:10:04.188Z,17.35
2022-09-13T02:11:04.192Z,17.35
2022-09-13T02:12:04.171Z,17.35
2022-09-13T02:13:04.162Z,17.35
2022-09-13T02:14:04.077Z,17.36
2022-09-13T02:15:04.111Z,17.35
2022-09-13T02:16:04.097Z,17.36
2022-09-13T02:17:04.073Z,17.36
2022-09-13T02:18:04.219Z,17.36
2022-09-13T02:19:04.176Z,17.36
2022-09-13T02:20:04.111Z,17.36
2022-09-13T02:21:04.054Z,17.36
2022-09-13T02:22:04.022Z,17.38
2022-09-13T02:23:04.262Z,17.38
2022-09-13T02:24:04.015Z,17.38
2022-09-13T02:25:04.073Z,17.36
2022-09-13T02:26:03.955Z,17.36
2022-09-13T02:27:03.997Z,17.36
2022-09-13T02:28:03.999Z,17.35
2022-09-13T02:29:03.985Z,17.35
2022-09-13T02:30:03.903Z,17.36
2022-09-13T02:31:03.918Z,17.36
2022-09-13T02:32:03.985Z,17.35
2022-09-13T02:33:03.840Z,17.35
2022-09-13T02:34:03.980Z,17.33
2022-09-13T02:35:03.873Z,17.32
2022-09-13T02:36:03.862Z,17.30
2022-09-13T02:37:03.830Z,17.30
2022-09-13T02:38:03.930Z,17.30
2022-09-13T02:39:03.846Z,17.30
2022-09-13T02:40:03.956Z,17.30
2022-09-13T02:41:03.866Z,17.28
2022-09-13T02:42:03.873Z,17.27
2022-09-13T02:43:03.811Z,17.28
2022-09-13T02:44:03.777Z,17.27
2022-09-13T02:45:03.773Z,17.27
2022-09-13T02:46:04.727Z,17.27
2022-09-13T02:47:03.778Z,17.25
2022-09-13T02:48:03.695Z,17.27
2022-09-13T02:49:03.712Z,17.27
2022-09-13T02:50:03.859Z,17.27
2022-09-13T02:51:03.686Z,17.25
2022-09-13T02:52:03.820Z,17.25
2022-09-13T02:53:03.674Z,17.25
2022-09-13T02:54:03.702Z,17.25
2022-09-13T02:55:03.645Z,17.25
2022-09-13T02:56:03.739Z,17.27
2022-09-13T02:57:03.654Z,17.25
2022-09-13T02:58:03.672Z,17.28
2022-09-13T02:59:03.625Z,17.28
2022-09-13T03:00:03.620Z,17.28
2022-09-13T03:01:03.617Z,17.27
2022-09-13T03:02:03.750Z,17.28
2022-09-13T03:03:03.764Z,17.27
2022-09-13T03:04:03.558Z,17.25
2022-09-13T03:05:03.625Z,17.25
2022-09-13T03:06:03.578Z,17.27
2022-09-13T03:07:03.553Z,17.24
2022-09-13T03:08:03.574Z,17.22
2022-09-13T03:09:03.505Z,17.22
2022-09-13T03:10:03.463Z,17.22
2022-09-13T03:11:03.593Z,17.24
2022-09-13T03:12:03.465Z,17.22
2022-09-13T03:13:03.517Z,17.24
2022-09-13T03:14:03.453Z,17.21
2022-09-13T03:15:03.541Z,17.24
2022-09-13T03:16:03.491Z,17.22
2022-09-13T03:17:03.447Z,17.21
2022-09-13T03:18:03.455Z,17.21
2022-09-13T03:19:03.363Z,17.21
2022-09-13T03:20:03.362Z,17.21
2022-09-13T03:21:03.379Z,17.18
2022-09-13T03:22:03.420Z,17.17
2022-09-13T03:23:03.416Z,17.18
2022-09-13T03:24:03.483Z,17.20
2022-09-13T03:25:03.366Z,17.20
2022-09-13T03:26:03.352Z,17.21
2022-09-13T03:27:03.424Z,17.20
2022-09-13T03:28:03.483Z,17.21
2022-09-13T03:29:03.378Z,17.20
2022-09-13T03:30:03.338Z,17.20
2022-09-13T03:31:03.301Z,17.20
2022-09-13T03:32:03.369Z,17.20
2022-09-13T03:33:03.277Z,17.21
2022-09-13T03:34:03.273Z,17.21
2022-09-13T03:35:03.408Z,17.21
2022-09-13T03:36:03.247Z,17.24
2022-09-13T03:37:03.205Z,17.22
2022-09-13T03:38:03.273Z,17.22
2022-09-13T03:39:03.266Z,17.22
2022-09-13T03:40:03.391Z,17.21
2022-09-13T03:41:03.132Z,17.22
2022-09-13T03:42:03.189Z,17.24
2022-09-13T03:43:03.111Z,17.24
2022-09-13T03:44:03.081Z,17.24
2022-09-13T03:45:03.085Z,17.24
2022-09-13T03:46:03.417Z,17.22
2022-09-13T03:47:03.089Z,17.24
2022-09-13T03:48:03.155Z,17.22
2022-09-13T03:49:03.031Z,17.22
2022-09-13T03:50:03.074Z,17.22
2022-09-13T03:51:03.026Z,17.20
2022-09-13T03:52:03.135Z,17.21
2022-09-13T03:53:02.977Z,17.21
2022-09-13T03:54:03.113Z,17.20
2022-09-13T03:55:02.994Z,17.18
2022-09-13T03:56:02.957Z,17.17
2022-09-13T03:57:03.100Z,17.18
2022-09-13T03:58:02.975Z,17.20
2022-09-13T03:59:02.968Z,17.20
2022-09-13T04:00:02.907Z,17.18
2022-09-13T04:01:02.936Z,17.17
2022-09-13T04:02:03.035Z,17.18
2022-09-13T04:03:02.987Z,17.18
2022-09-13T04:04:02.925Z,17.18
2022-09-13T04:05:02.853Z,17.22
2022-09-13T04:06:02.914Z,17.21
2022-09-13T04:07:02.939Z,17.24
2022-09-13T04:08:02.925Z,17.25
2022-09-13T04:09:02.831Z,17.25
2022-09-13T04:10:02.802Z,17.25
2022-09-13T04:11:02.782Z,17.25
2022-09-13T04:12:02.903Z,17.28
2022-09-13T04:13:02.800Z,17.28
2022-09-13T04:14:02.817Z,17.27
2022-09-13T04:15:02.862Z,17.27
2022-09-13T04:16:02.887Z,17.25
2022-09-13T04:17:02.885Z,17.27
2022-09-13T04:18:02.736Z,17.27
2022-09-13T04:19:02.877Z,17.28
2022-09-13T04:20:02.760Z,17.27
2022-09-13T04:21:02.778Z,17.25
2022-09-13T04:22:02.746Z,17.24
2022-09-13T04:23:02.719Z,17.24
2022-09-13T04:24:02.740Z,17.22
2022-09-13T04:25:02.903Z,17.22
2022-09-13T04:26:02.720Z,17.21
2022-09-13T04:27:02.655Z,17.21
2022-09-13T04:28:02.686Z,17.20
2022-09-13T04:29:02.580Z,17.20
2022-09-13T04:30:02.651Z,17.20
2022-09-13T04:31:02.622Z,17.21
2022-09-13T04:32:02.713Z,17.18
2022-09-13T04:33:02.626Z,17.21
2022-09-13T04:34:02.514Z,17.20
2022-09-13T04:35:02.641Z,17.20
2022-09-13T04:36:02.673Z,17.20
2022-09-13T04:37:02.575Z,17.18
2022-09-13T04:38:02.486Z,17.18
2022-09-13T04:39:02.481Z,17.18
2022-09-13T04:40:02.685Z,17.18
2022-09-13T04:41:02.501Z,17.17
2022-09-13T04:42:02.482Z,17.15
2022-09-13T04:43:02.727Z,17.14
2022-09-13T04:44:02.461Z,17.17
2022-09-13T04:45:02.549Z,17.18
2022-09-13T04:46:02.525Z,17.18
2022-09-13T04:47:02.462Z,17.18
2022-09-13T04:48:02.371Z,17.18
2022-09-13T04:49:02.375Z,17.18
2022-09-13T04:50:02.441Z,17.18
2022-09-13T04:51:02.351Z,17.18
2022-09-13T04:52:02.508Z,17.18
2022-09-13T04:53:02.381Z,17.18
2022-09-13T04:54:02.398Z,17.17
2022-09-13T04:55:02.331Z,17.15
2022-09-13T04:56:02.377Z,17.17
2022-09-13T04:57:02.315Z,17.18
2022-09-13T04:58:02.310Z,17.15
2022-09-13T04:59:02.332Z,17.18
2022-09-13T05:00:02.396Z,17.15
2022-09-13T05:01:02.423Z,17.15
2022-09-13T05:02:02.444Z,17.14
2022-09-13T05:03:02.270Z,17.15
2022-09-13T05:04:02.227Z,17.12
2022-09-13T05:05:02.239Z,17.10
2022-09-13T05:06:02.279Z,17.12
2022-09-13T05:07:02.192Z,17.10
2022-09-13T05:08:02.176Z,17.12
2022-09-13T05:09:02.130Z,17.12
2022-09-13T05:10:02.150Z,17.12
2022-09-13T05:11:02.198Z,17.10
2022-09-13T05:12:02.162Z,17.12
2022-09-13T05:13:02.162Z,17.12
2022-09-13T05:14:02.186Z,17.12
2022-09-13T05:15:02.143Z,17.10
2022-09-13T05:16:02.344Z,17.10
2022-09-13T05:17:02.101Z,17.12
2022-09-13T05:18:02.218Z,17.12
2022-09-13T05:19:02.153Z,17.10
2022-09-13T05:20:02.028Z,17.10
2022-09-13T05:21:02.265Z,17.09
2022-09-13T05:22:02.195Z,17.09
2022-09-13T05:23:02.128Z,17.10
2022-09-13T05:24:01.973Z,17.09
2022-09-13T05:25:01.982Z,17.09
2022-09-13T05:26:02.021Z,17.10
2022-09-13T05:27:02.257Z,17.12
2022-09-13T05:28:01.911Z,17.12
2022-09-13T05:29:02.048Z,17.10
2022-09-13T05:30:01.892Z,17.12
2022-09-13T05:31:02.092Z,17.12
2022-09-13T05:32:02.005Z,17.14
2022-09-13T05:33:01.858Z,17.15
2022-09-13T05:34:01.918Z,17.15
2022-09-13T05:35:02.153Z,17.15
2022-09-13T05:36:01.846Z,17.20
2022-09-13T05:37:01.883Z,17.21
2022-09-13T05:38:01.974Z,17.22
2022-09-13T05:39:28.619Z,17.22
2022-09-13T05:40:17.295Z,17.24
2022-09-13T05:41:01.916Z,17.25
2022-09-13T05:42:01.905Z,17.27
2022-09-13T05:43:01.904Z,17.32
2022-09-13T05:44:12.085Z,17.33
2022-09-13T05:45:01.805Z,17.36
2022-09-13T05:46:01.959Z,17.39
2022-09-13T05:47:01.832Z,17.42
2022-09-13T05:48:01.750Z,17.42
2022-09-13T05:49:01.712Z,17.45
2022-09-13T05:50:10.240Z,17.46
2022-09-13T05:51:01.766Z,17.49
2022-09-13T05:52:01.757Z,17.49
2022-09-13T05:53:01.748Z,17.53
2022-09-13T05:54:01.734Z,17.53
2022-09-13T05:55:01.615Z,17.54
2022-09-13T05:56:01.602Z,17.54
2022-09-13T05:57:01.729Z,17.54
2022-09-13T05:58:01.598Z,17.54
2022-09-13T05:59:01.781Z,17.57
2022-09-13T06:00:01.607Z,17.55
2022-09-13T06:01:01.801Z,17.55
2022-09-13T06:02:01.611Z,17.53
2022-09-13T06:03:01.566Z,17.55
2022-09-13T06:04:01.652Z,17.57
2022-09-13T06:05:01.530Z,17.60
2022-09-13T06:06:01.627Z,17.58
2022-09-13T06:07:01.538Z,17.63
2022-09-13T06:08:01.557Z,17.65
2022-09-13T06:09:01.574Z,17.63
2022-09-13T06:10:01.531Z,17.66
2022-09-13T06:11:01.457Z,17.71
2022-09-13T06:12:01.500Z,17.77
2022-09-13T06:13:01.478Z,17.81
2022-09-13T06:14:01.481Z,17.83
2022-09-13T06:15:01.373Z,17.86
2022-09-13T06:16:01.439Z,17.87
2022-09-13T06:17:01.502Z,17.91
2022-09-13T06:18:01.400Z,17.94
2022-09-13T06:19:01.434Z,17.95
2022-09-13T06:20:01.419Z,17.95
2022-09-13T06:21:01.500Z,17.98
2022-09-13T06:22:01.344Z,17.99
2022-09-13T06:23:01.288Z,17.98
2022-09-13T06:24:01.323Z,17.98
2022-09-13T06:25:01.300Z,17.98
2022-09-13T06:26:01.304Z,17.96
2022-09-13T06:27:01.317Z,17.98
2022-09-13T06:28:01.302Z,17.98
2022-09-13T06:29:01.367Z,17.96
2022-09-13T06:30:01.257Z,17.99
2022-09-13T06:31:01.317Z,18.02
2022-09-13T06:32:01.307Z,18.01
2022-09-13T06:33:01.232Z,18.02
2022-09-13T06:34:01.198Z,18.05
2022-09-13T06:35:01.179Z,18.04
2022-09-13T06:36:01.176Z,18.05
2022-09-13T06:37:01.234Z,18.07
2022-09-13T06:38:01.163Z,18.10
2022-09-13T06:39:01.184Z,18.13
2022-09-13T06:40:01.172Z,18.16
2022-09-13T06:41:01.282Z,18.17
2022-09-13T06:42:01.211Z,18.19
2022-09-13T06:43:01.141Z,18.19
2022-09-13T06:44:01.156Z,18.20
2022-09-13T06:45:01.216Z,18.23
2022-09-13T06:46:01.120Z,18.28
2022-09-13T06:47:01.091Z,18.26
2022-09-13T06:48:01.016Z,18.31
2022-09-13T06:49:01.015Z,18.34
2022-09-13T06:50:01.008Z,18.38
2022-09-13T06:51:00.988Z,18.36
2022-09-13T06:52:00.990Z,18.44
2022-09-13T06:53:00.975Z,18.50
2022-09-13T06:54:00.950Z,18.59
2022-09-13T06:55:00.977Z,18.64
2022-09-13T06:56:01.011Z,18.65
2022-09-13T06:57:00.928Z,18.62
2022-09-13T06:58:00.953Z,18.66
2022-09-13T06:59:00.969Z,18.66
2022-09-13T07:00:00.917Z,18.64
2022-09-13T07:01:00.922Z,18.68
2022-09-13T07:02:00.884Z,18.69
2022-09-13T07:03:00.862Z,18.74
2022-09-13T07:04:00.845Z,18.78
2022-09-13T07:05:00.937Z,18.79
2022-09-13T07:06:00.890Z,18.78
2022-09-13T07:07:00.807Z,18.76
2022-09-13T07:08:00.836Z,18.74
2022-09-13T07:09:00.773Z,18.69
2022-09-13T07:10:00.792Z,18.68
2022-09-13T07:11:00.779Z,18.66
2022-09-13T07:12:00.803Z,18.69
2022-09-13T07:13:00.745Z,18.71
2022-09-13T07:14:00.784Z,18.78
2022-09-13T07:15:00.698Z,18.79
2022-09-13T07:16:00.709Z,18.82
2022-09-13T07:17:00.707Z,18.86
2022-09-13T07:18:00.735Z,18.89
2022-09-13T07:19:00.687Z,18.93
2022-09-13T07:20:00.640Z,18.90
2022-09-13T07:21:00.635Z,18.97
2022-09-13T07:22:00.661Z,19.02
2022-09-13T07:23:00.659Z,19.12
2022-09-13T07:24:00.622Z,19.17
2022-09-13T07:25:00.590Z,19.24
2022-09-13T07:26:00.643Z,19.23
2022-09-13T07:27:00.605Z,19.20
2022-09-13T07:28:00.591Z,19.16
2022-09-13T07:29:00.552Z,19.25
2022-09-13T07:30:00.531Z,19.32
2022-09-13T07:31:00.554Z,19.38
2022-09-13T07:32:00.605Z,19.40
2022-09-13T07:33:00.510Z,19.38
2022-09-13T07:34:00.535Z,19.42
2022-09-13T07:35:00.479Z,19.47
2022-09-13T07:36:00.501Z,19.50
2022-09-13T07:37:00.458Z,19.58
2022-09-13T07:38:00.426Z,19.58
2022-09-13T07:39:00.448Z,19.60
2022-09-13T07:40:00.526Z,19.62
2022-09-13T07:41:00.397Z,19.58
2022-09-13T07:42:00.398Z,19.64
2022-09-13T07:43:00.410Z,19.62
2022-09-13T07:44:00.362Z,19.64
2022-09-13T07:45:00.357Z,19.70
2022-09-13T07:46:00.381Z,19.72
2022-09-13T07:47:00.369Z,19.72
2022-09-13T07:48:00.363Z,19.79
2022-09-13T07:49:00.325Z,19.83
2022-09-13T07:50:00.320Z,19.86
2022-09-13T07:51:00.314Z,19.90
2022-09-13T07:52:00.313Z,19.95
2022-09-13T07:53:00.295Z,19.97
2022-09-13T07:54:00.252Z,20.01
2022-09-13T07:55:00.242Z,20.05
2022-09-13T07:56:00.269Z,20.05
2022-09-13T07:57:00.310Z,20.10
2022-09-13T07:58:00.230Z,20.07
2022-09-13T07:59:00.224Z,20.08
2022-09-13T08:00:00.216Z,20.12
2022-09-13T08:01:00.213Z,20.12
2022-09-13T08:02:00.291Z,20.13
2022-09-13T08:03:00.177Z,20.15
2022-09-13T08:04:00.136Z,20.17
2022-09-13T08:05:00.119Z,20.19
2022-09-13T08:06:00.133Z,20.22
2022-09-13T08:07:00.135Z,20.26
2022-09-13T08:08:00.143Z,20.22
2022-09-13T08:09:00.072Z,20.25
2022-09-13T08:10:00.109Z,20.16
2022-09-13T08:11:00.093Z,20.13
2022-09-13T08:12:00.101Z,20.12
2022-09-13T08:13:00.068Z,20.10
2022-09-13T08:14:00.136Z,20.16
2022-09-13T08:15:00.017Z,20.20
2022-09-13T08:16:00.138Z,20.19
2022-09-13T08:17:00.098Z,20.20
2022-09-13T08:18:00.019Z,20.20
2022-09-13T08:18:59.985Z,20.22
2022-09-13T08:19:59.983Z,20.26
2022-09-13T08:20:59.980Z,20.30
2022-09-13T08:21:59.961Z,20.34
2022-09-13T08:22:59.942Z,20.33
2022-09-13T08:23:59.920Z,20.30
2022-09-13T08:24:59.976Z,20.31
2022-09-13T08:25:59.901Z,20.34
2022-09-13T08:26:59.929Z,20.37
2022-09-13T08:27:59.900Z,20.42
2022-09-13T08:28:59.878Z,20.46
2022-09-13T08:29:59.863Z,20.50
2022-09-13T08:30:59.922Z,20.46
2022-09-13T08:31:59.871Z,20.48
2022-09-13T08:32:59.829Z,20.46
2022-09-13T08:33:59.815Z,20.44
2022-09-13T08:34:59.825Z,20.44
2022-09-13T08:35:59.791Z,20.48
2022-09-13T08:36:59.795Z,20.48
2022-09-13T08:37:59.801Z,20.50
2022-09-13T08:38:59.764Z,20.48
2022-09-13T08:39:59.775Z,20.53
2022-09-13T08:40:59.726Z,20.54
2022-09-13T08:41:59.777Z,20.56
2022-09-13T08:42:59.729Z,20.60
2022-09-13T08:43:59.721Z,20.56
2022-09-13T08:44:59.687Z,20.57
2022-09-13T08:45:59.704Z,20.63
2022-09-13T08:46:59.690Z,20.68
2022-09-13T08:47:59.663Z,20.58
2022-09-13T08:48:59.656Z,20.51
2022-09-13T08:49:59.667Z,20.51
2022-09-13T08:50:59.654Z,20.53
2022-09-13T08:51:59.657Z,20.57
2022-09-13T08:52:59.616Z,20.63
2022-09-13T08:53:59.644Z,20.71
2022-09-13T08:54:59.612Z,20.78
2022-09-13T08:55:59.611Z,20.78
2022-09-13T08:56:59.637Z,20.82
2022-09-13T08:57:59.587Z,20.85
2022-09-13T08:58:59.538Z,20.87
2022-09-13T08:59:59.568Z,20.91
2022-09-13T09:00:59.590Z,20.94
2022-09-13T09:01:59.532Z,20.94
2022-09-13T09:02:59.553Z,20.90
2022-09-13T09:03:59.492Z,20.88
2022-09-13T09:04:59.472Z,20.91
2022-09-13T09:05:59.486Z,20.93
2022-09-13T09:06:59.473Z,20.87
2022-09-13T09:07:59.459Z,20.87
2022-09-13T09:08:59.436Z,20.87
2022-09-13T09:09:59.494Z,20.94
2022-09-13T09:10:59.420Z,21.03
2022-09-13T09:11:59.424Z,21.03
2022-09-13T09:12:59.429Z,21.15
2022-09-13T09:13:59.378Z,21.27
2022-09-13T09:14:59.395Z,21.36
2022-09-13T09:15:59.382Z,21.45
2022-09-13T09:16:59.478Z,21.43
2022-09-13T09:17:59.340Z,21.46
2022-09-13T09:19:00.056Z,21.53
2022-09-13T09:19:59.447Z,21.66
2022-09-13T09:20:59.345Z,21.71
2022-09-13T09:21:59.353Z,21.77
2022-09-13T09:22:59.280Z,21.86
2022-09-13T09:23:59.312Z,21.85
2022-09-13T09:24:59.374Z,21.83
2022-09-13T09:25:59.373Z,21.85
2022-09-13T09:26:59.299Z,21.93
2022-09-13T09:27:59.318Z,21.94
2022-09-13T09:28:59.265Z,21.99
2022-09-13T09:29:59.295Z,21.96
2022-09-13T09:30:59.345Z,22.01
2022-09-13T09:31:59.448Z,22.05
2022-09-13T09:32:59.209Z,22.08
2022-09-13T09:33:59.224Z,22.08
2022-09-13T09:34:59.261Z,22.11
2022-09-13T09:35:59.212Z,22.19
2022-09-13T09:36:59.177Z,22.23
2022-09-13T09:37:59.123Z,22.29
2022-09-13T09:38:59.097Z,22.35
2022-09-13T09:39:59.170Z,22.33
2022-09-13T09:40:59.093Z,22.20
2022-09-13T09:41:59.170Z,22.19
2022-09-13T09:42:59.175Z,22.20
2022-09-13T09:43:59.058Z,22.15
2022-09-13T09:44:59.317Z,22.09
2022-09-13T09:45:59.206Z,22.06
2022-09-13T09:46:59.038Z,22.04
2022-09-13T09:47:59.095Z,22.02
2022-09-13T09:48:59.017Z,22.06
2022-09-13T09:49:59.005Z,22.11
2022-09-13T09:50:58.982Z,22.12
2022-09-13T09:51:59.076Z,22.14
2022-09-13T09:52:58.942Z,22.17
2022-09-13T09:53:58.944Z,22.09
2022-09-13T09:54:58.932Z,22.09
2022-09-13T09:55:58.969Z,22.17
2022-09-13T09:56:58.949Z,22.27
2022-09-13T09:58:00.221Z,22.27
2022-09-13T09:58:59.101Z,22.31
2022-09-13T09:59:58.901Z,22.38
2022-09-13T10:00:58.982Z,22.38
2022-09-13T10:01:59.011Z,22.44
2022-09-13T10:02:58.955Z,22.46
2022-09-13T10:03:59.001Z,22.49
2022-09-13T10:04:58.801Z,22.36
2022-09-13T10:05:58.885Z,22.27
2022-09-13T10:06:58.821Z,22.29
2022-09-13T10:07:58.801Z,22.30
2022-09-13T10:08:58.778Z,22.33
2022-09-13T10:09:58.870Z,22.38
2022-09-13T10:10:58.984Z,22.39
2022-09-13T10:11:58.853Z,22.39
2022-09-13T10:12:58.837Z,22.39
2022-09-13T10:13:58.749Z,22.41
2022-09-13T10:14:58.688Z,22.23
2022-09-13T10:15:58.696Z,22.15
2022-09-13T10:16:58.733Z,22.04
2022-09-13T10:17:58.730Z,22.04
2022-09-13T10:18:58.805Z,22.20
2022-09-13T10:19:58.670Z,22.31
2022-09-13T10:20:58.748Z,22.45
2022-09-13T10:21:58.651Z,22.46
2022-09-13T10:23:00.616Z,22.56
2022-09-13T10:23:58.608Z,22.51
2022-09-13T10:24:58.585Z,22.59
2022-09-13T10:25:58.586Z,22.69
2022-09-13T10:26:58.603Z,22.76
2022-09-13T10:27:58.575Z,22.84
2022-09-13T10:28:58.610Z,22.94
2022-09-13T10:29:58.644Z,22.99
2022-09-13T10:30:58.666Z,23.04
2022-09-13T10:31:58.560Z,23.04
2022-09-13T10:32:58.513Z,23.09
2022-09-13T10:33:58.603Z,23.14
2022-09-13T10:34:58.499Z,23.16
2022-09-13T10:35:58.604Z,23.12
2022-09-13T10:36:58.484Z,23.11
2022-09-13T10:37:58.573Z,23.07
2022-09-13T10:38:58.476Z,22.93
2022-09-13T10:39:58.582Z,22.96
2022-09-13T10:40:58.463Z,22.97
2022-09-13T10:41:58.538Z,22.97
2022-09-13T10:42:58.594Z,23.00
2022-09-13T10:43:59.163Z,23.03
2022-09-13T10:44:58.413Z,22.96
2022-09-13T10:45:58.503Z,22.96
2022-09-13T10:46:58.469Z,23.00
2022-09-13T10:47:58.363Z,22.93
2022-09-13T10:48:58.323Z,22.93
2022-09-13T10:49:58.323Z,22.89
2022-09-13T10:50:58.346Z,22.69
2022-09-13T10:51:58.425Z,22.57
2022-09-13T10:52:58.338Z,22.56
2022-09-13T10:53:58.317Z,22.52
2022-09-13T10:54:58.372Z,22.52
2022-09-13T10:55:58.263Z,22.51
2022-09-13T10:56:58.326Z,22.46
2022-09-13T10:57:58.407Z,22.45
2022-09-13T10:58:58.226Z,22.44
2022-09-13T10:59:58.374Z,22.41
2022-09-13T11:00:58.407Z,22.39
2022-09-13T11:01:58.270Z,22.36
2022-09-13T11:02:58.309Z,22.36
2022-09-13T11:03:58.244Z,22.33
2022-09-13T11:04:58.350Z,22.36
2022-09-13T11:05:58.277Z,22.31
2022-09-13T11:07:01.626Z,22.27
2022-09-13T11:07:58.204Z,22.30
2022-09-13T11:08:58.195Z,22.33
2022-09-13T11:09:58.455Z,22.39
2022-09-13T11:10:58.099Z,22.42
2022-09-13T11:11:58.138Z,22.45
2022-09-13T11:12:58.100Z,22.46
2022-09-13T11:13:58.081Z,22.46
2022-09-13T11:14:58.061Z,22.45
2022-09-13T11:15:58.130Z,22.45
2022-09-13T11:16:58.186Z,22.46
2022-09-13T11:17:58.103Z,22.46
2022-09-13T11:18:58.043Z,22.42
2022-09-13T11:19:58.167Z,22.41
2022-09-13T11:20:58.163Z,22.41
2022-09-13T11:21:58.131Z,22.36
2022-09-13T11:22:58.387Z,22.35
2022-09-13T11:23:58.001Z,22.35
2022-09-13T11:24:58.055Z,22.27
2022-09-13T11:25:58.124Z,22.26
2022-09-13T11:26:58.128Z,22.27
2022-09-13T11:27:58.072Z,22.27
2022-09-13T11:28:57.938Z,22.26
2022-09-13T11:29:57.950Z,22.27
2022-09-13T11:30:58.178Z,22.27
2022-09-13T11:31:58.305Z,22.27
2022-09-13T11:32:58.056Z,22.30
2022-09-13T11:33:58.234Z,22.31
2022-09-13T11:34:57.945Z,22.36
2022-09-13T11:35:58.037Z,22.30
2022-09-13T11:36:58.221Z,22.29
2022-09-13T11:37:57.942Z,22.30
2022-09-13T11:38:57.884Z,22.33
2022-09-13T11:39:58.088Z,22.36
2022-09-13T11:40:57.888Z,22.33
2022-09-13T11:41:58.448Z,22.29
2022-09-13T11:42:57.805Z,22.31
2022-09-13T11:43:57.941Z,22.31
2022-09-13T11:44:57.889Z,22.31
2022-09-13T11:45:57.870Z,22.31
2022-09-13T11:46:57.860Z,22.33
2022-09-13T11:47:57.830Z,22.31
2022-09-13T11:48:57.758Z,22.30
2022-09-13T11:49:57.774Z,22.27
2022-09-13T11:50:57.851Z,22.29
2022-09-13T11:51:57.832Z,22.31
2022-09-13T11:52:57.672Z,22.33
2022-09-13T11:53:57.811Z,22.33
2022-09-13T11:54:57.926Z,22.35
2022-09-13T11:55:57.680Z,22.36
2022-09-13T11:56:57.601Z,22.38
2022-09-13T11:57:57.847Z,22.41
2022-09-13T11:58:58.056Z,22.41
2022-09-13T11:59:57.862Z,22.36
2022-09-13T12:00:57.732Z,22.33
2022-09-13T12:01:57.652Z,22.35
2022-09-13T12:02:57.861Z,22.44
2022-09-13T12:03:57.604Z,22.52
2022-09-13T12:05:18.423Z,22.60
2022-09-13T12:05:57.769Z,22.63
2022-09-13T12:06:57.664Z,22.66
2022-09-13T12:07:57.604Z,22.67
2022-09-13T12:08:57.721Z,22.72
2022-09-13T12:09:57.715Z,22.70
2022-09-13T12:10:57.840Z,22.75
2022-09-13T12:11:57.889Z,22.79
2022-09-13T12:12:58.316Z,22.82
2022-09-13T12:13:57.694Z,22.84
2022-09-13T12:14:58.869Z,22.84
2022-09-13T12:15:57.414Z,22.79
2022-09-13T12:16:57.507Z,22.81
2022-09-13T12:17:57.437Z,22.84
2022-09-13T12:18:57.366Z,22.85
2022-09-13T12:19:57.391Z,22.88
2022-09-13T12:20:57.470Z,22.91
2022-09-13T12:21:57.321Z,22.96
2022-09-13T12:22:57.311Z,23.01
2022-09-13T12:23:57.321Z,23.12
2022-09-13T12:24:57.336Z,23.21
2022-09-13T12:25:57.313Z,23.29
2022-09-13T12:26:57.360Z,23.39
2022-09-13T12:27:57.380Z,23.41
2022-09-13T12:28:57.262Z,23.45
2022-09-13T12:29:57.338Z,23.47
2022-09-13T12:30:57.231Z,23.41
2022-09-13T12:31:57.264Z,23.41
2022-09-13T12:32:59.155Z,23.44
2022-09-13T12:33:57.194Z,23.49
2022-09-13T12:34:57.261Z,23.52
2022-09-13T12:35:57.174Z,23.54
2022-09-13T12:36:57.186Z,23.59
2022-09-13T12:37:57.143Z,23.60
2022-09-13T12:38:57.190Z,23.63
2022-09-13T12:39:57.180Z,23.67
2022-09-13T12:40:57.229Z,23.64
2022-09-13T12:41:57.098Z,23.63
2022-09-13T12:42:57.074Z,23.64
2022-09-13T12:43:57.069Z,23.63
2022-09-13T12:44:57.051Z,23.68
2022-09-13T12:45:57.151Z,23.74
2022-09-13T12:46:57.044Z,23.81
2022-09-13T12:47:57.047Z,23.86
2022-09-13T12:48:57.053Z,23.90
2022-09-13T12:50:01.427Z,23.97
2022-09-13T12:50:57.123Z,24.04
2022-09-13T12:51:57.075Z,24.15